Weather History for K4M9 - November, 2012

Change the Weather History Date:

Wednesday, November 14, 2012

  Actual Average (KJBR) Record (KJBR)
Temperature  
Mean Temperature 40 °F 50 °F  
Max Temperature 48 °F 60 °F 81 °F (1999)
Min Temperature 32 °F 41 °F 15 °F (1986)
Degree Days  
Heating Degree Days 25 15  
Month to date heating degree days 169  
Since 1 July heating degree days 356  
Cooling Degree Days 0 0  
Month to date cooling degree days 1  
Year to date cooling degree days 1825  
Moisture  
Dew Point 30 °F    
Average Humidity 71    
Maximum Humidity 93    
Minimum Humidity 43    
Precipitation  
Precipitation 0.00 in 0.20 in 3.73 in (1957)
Month to date precipitation 1.95  
Year to date precipitation 40.38  
Snow  
Snow 0.00 in 0.00 in 2.00 in (1976)
Month to date snowfall 0.0  
Since 1 July snowfall 0.0  
Since 1 September snowfall 0.0  
Snow Depth -    
Sea Level Pressure  
Sea Level Pressure 30.42 in    
Wind  
Wind Speed 6 mph (NNE)    
Max Wind Speed 12 mph    
Max Gust Speed -    
Visibility 6 miles    
Events      
T = Trace of Precipitation, MM = Missing Value Source: NWS Daily Summary

Daily Weather History Graph

Daily Weather History Graph

Search for Another Location

Airport or City:

Trip Planner

Search our weather history database for the weather conditions in past years. The results will help you decide how hot, cold, wet, or windy it might be!

Date:

Astronomy

Nov. 14, 2012 Rise Set
Actual Time 6:39 AM CST 4:54 PM CST
Civil Twilight 6:11 AM CST 5:21 PM CST
Nautical Twilight 5:40 AM CST 5:52 PM CST
Astronomical Twilight 5:10 AM CST 6:23 PM CST
Moon 7:27 AM CST (11/14) 5:45 PM CST (11/14)
Length of Visible Light 11h 09m
Length of Day
10h 15m
New Moon, 1% of the Moon is Illuminated
Nov 14
New Moon
Nov 20
First Quarter
Nov 28
Full
Dec 6
Last Quarter
Dec 13
New

Hourly Weather History & Observations

Time (CST) Temp. Windchill Dew Point Humidity Pressure Visibility Wind Dir Wind Speed Gust Speed Precip Events Conditions
12:15 AM 35.6 °F 29.9 °F 30.2 °F 81% 30.47 in 8.0 mi North 6.9 mph - N/A   Unknown
12:35 AM 35.6 °F 29.9 °F 30.2 °F 81% 30.47 in 8.0 mi North 6.9 mph - N/A   Unknown
12:55 AM 35.6 °F 29.9 °F 30.2 °F 81% 30.46 in 5.0 mi North 6.9 mph - N/A   Haze
1:15 AM 35.6 °F 29.9 °F 30.2 °F 81% 30.45 in 6.0 mi NNE 6.9 mph - N/A   Haze
1:35 AM 35.6 °F 30.7 °F 28.4 °F 75% 30.45 in 5.0 mi NNE 5.8 mph - N/A   Haze
1:55 AM 35.6 °F 30.7 °F 28.4 °F 75% 30.45 in 7.0 mi NNE 5.8 mph - N/A   Unknown
2:15 AM 35.6 °F 32.8 °F 30.2 °F 81% 30.45 in 7.0 mi NNE 3.5 mph - N/A   Unknown
2:35 AM 35.6 °F - 32.0 °F 87% 30.46 in 9.0 mi Calm Calm - N/A   Unknown
2:55 AM 35.6 °F 31.7 °F 30.2 °F 81% 30.45 in 8.0 mi North 4.6 mph - N/A   Unknown
3:15 AM 35.6 °F 32.8 °F 28.4 °F 75% 30.45 in 7.0 mi North 3.5 mph - N/A   Unknown
3:35 AM 33.8 °F 29.6 °F 30.2 °F 87% 30.45 in 8.0 mi North 4.6 mph - N/A   Unknown
3:55 AM 33.8 °F 28.6 °F 28.4 °F 81% 30.45 in 7.0 mi NNE 5.8 mph - N/A   Unknown
4:15 AM 33.8 °F 28.6 °F 28.4 °F 81% 30.45 in 7.0 mi NNE 5.8 mph - N/A   Unknown
4:35 AM 33.8 °F 28.6 °F 28.4 °F 81% 30.45 in 7.0 mi North 5.8 mph - N/A   Unknown
4:55 AM 33.8 °F 27.7 °F 28.4 °F 81% 30.45 in 5.0 mi NNE 6.9 mph - N/A   Haze
5:15 AM 33.8 °F 29.6 °F 28.4 °F 81% 30.46 in 5.0 mi NNE 4.6 mph - N/A   Unknown
5:35 AM 33.8 °F 29.6 °F 28.4 °F 81% 30.46 in 5.0 mi North 4.6 mph - N/A   Haze
5:55 AM 33.8 °F 27.7 °F 28.4 °F 81% 30.46 in 5.0 mi North 6.9 mph - N/A   Haze
6:15 AM 33.8 °F 29.6 °F 28.4 °F 81% 30.46 in 4.0 mi NNE 4.6 mph - N/A   Haze
6:35 AM 33.8 °F 25.8 °F 28.4 °F 81% 30.45 in 6.0 mi NNE 10.4 mph - N/A   Unknown
6:55 AM 35.6 °F 29.9 °F 28.4 °F 75% 30.46 in 3.0 mi NNE 6.9 mph - N/A   Unknown
7:15 AM 35.6 °F 29.9 °F 28.4 °F 75% 30.46 in 3.0 mi NNE 6.9 mph - N/A   Unknown
7:35 AM 35.6 °F 29.9 °F 28.4 °F 75% 30.47 in 4.0 mi North 6.9 mph - N/A   Haze
7:55 AM 35.6 °F 29.2 °F 30.2 °F 81% 30.48 in 3.0 mi North 8.1 mph - N/A   Unknown
8:15 AM 35.6 °F 29.2 °F 30.2 °F 81% 30.47 in 3.0 mi North 8.1 mph - N/A   Haze
8:35 AM 37.4 °F 32.1 °F 28.4 °F 70% 30.48 in 3.0 mi North 6.9 mph - N/A   Unknown
8:55 AM 37.4 °F 32.1 °F 30.2 °F 75% 30.48 in 3.0 mi NNE 6.9 mph - N/A   Haze
9:15 AM 39.2 °F 35.0 °F 28.4 °F 65% 30.49 in 2.5 mi North 5.8 mph - N/A   Unknown
9:35 AM 39.2 °F 35.9 °F 28.4 °F 65% 30.48 in 3.0 mi North 4.6 mph - N/A   Haze
9:55 AM 39.2 °F 32.5 °F 30.2 °F 70% 30.48 in 3.0 mi NE 10.4 mph - N/A   Unknown
10:15 AM 41.0 °F 35.2 °F 30.2 °F 65% 30.48 in 2.5 mi NE 9.2 mph - N/A   Unknown
10:35 AM 42.8 °F 37.5 °F 30.2 °F 61% 30.48 in 3.0 mi NE 9.2 mph - N/A   Unknown
10:55 AM 42.8 °F 37.0 °F 32.0 °F 66% 30.47 in 3.0 mi NE 10.4 mph - N/A   Unknown
11:15 AM 44.6 °F 39.7 °F 32.0 °F 61% 30.45 in 4.0 mi NNE 9.2 mph - N/A   Haze
11:35 AM 44.6 °F 39.2 °F 32.0 °F 61% 30.44 in 3.0 mi NNE 10.4 mph - N/A   Haze
11:55 AM 46.4 °F 41.5 °F 30.2 °F 53% 30.43 in 3.0 mi NE 10.4 mph - N/A   Haze
12:15 PM 46.4 °F 41.9 °F 28.4 °F 50% 30.43 in 4.0 mi NNE 9.2 mph - N/A   Haze
12:35 PM 48.2 °F - 26.6 °F 43% 30.43 in 4.0 mi ENE 6.9 mph - N/A   Haze
12:55 PM 48.2 °F - 28.4 °F 46% 30.42 in 3.0 mi NE 11.5 mph - N/A   Haze
1:15 PM 48.2 °F - 28.4 °F 46% 30.41 in 5.0 mi NE 11.5 mph - N/A   Haze
1:35 PM 48.2 °F - 28.4 °F 46% 30.40 in 4.0 mi NE 11.5 mph - N/A   Haze
1:55 PM 48.2 °F - 28.4 °F 46% 30.39 in 4.0 mi NE 9.2 mph - N/A   Haze
2:15 PM 48.2 °F - 28.4 °F 46% 30.39 in 5.0 mi NNE 8.1 mph - N/A   Haze
2:35 PM 48.2 °F - 28.4 °F 46% 30.38 in 5.0 mi ENE 11.5 mph - N/A   Haze
2:55 PM 48.2 °F - 28.4 °F 46% 30.38 in 5.0 mi NE 9.2 mph - N/A   Haze
3:15 PM 48.2 °F - 28.4 °F 46% 30.37 in 4.0 mi ENE 11.5 mph - N/A   Haze
3:35 PM 48.2 °F - 28.4 °F 46% 30.37 in 4.0 mi ENE 11.5 mph - N/A   Haze
3:55 PM 48.2 °F - 30.2 °F 50% 30.37 in 3.0 mi NE 10.4 mph - N/A   Haze
4:15 PM 46.4 °F 42.9 °F 28.4 °F 50% 30.37 in 4.0 mi ENE 6.9 mph - N/A   Haze
4:35 PM 44.6 °F 42.2 °F 32.0 °F 61% 30.37 in 8.0 mi ENE 4.6 mph - N/A   Unknown
4:55 PM 44.6 °F 41.4 °F 32.0 °F 61% 30.37 in 3.0 mi ENE 5.8 mph - N/A   Haze
5:15 PM 42.8 °F 40.1 °F 32.0 °F 66% 30.37 in 10.0 mi ENE 4.6 mph - N/A   Unknown
5:35 PM 41.0 °F 38.0 °F 32.0 °F 70% 30.37 in 8.0 mi ENE 4.6 mph - N/A   Unknown
5:55 PM 41.0 °F 38.0 °F 32.0 °F 70% 30.37 in 5.0 mi ENE 4.6 mph - N/A   Haze
6:15 PM 41.0 °F 39.0 °F 32.0 °F 70% 30.37 in 8.0 mi NE 3.5 mph - N/A   Unknown
6:35 PM 41.0 °F 38.0 °F 32.0 °F 70% 30.37 in 7.0 mi NE 4.6 mph - N/A   Unknown
6:55 PM 41.0 °F 39.0 °F 32.0 °F 70% 30.37 in 10.0 mi NE 3.5 mph - N/A   Unknown
7:15 PM 39.2 °F 35.0 °F 32.0 °F 75% 30.37 in 9.0 mi ENE 5.8 mph - N/A   Unknown
7:35 PM 37.4 °F 32.8 °F 32.0 °F 81% 30.36 in 9.0 mi ENE 5.8 mph - N/A   Unknown
7:55 PM 37.4 °F 32.8 °F 32.0 °F 81% 30.37 in 9.0 mi ENE 5.8 mph - N/A   Unknown
8:15 PM 39.2 °F 35.9 °F 28.4 °F 65% 30.37 in 9.0 mi NE 4.6 mph - N/A   Unknown
8:35 PM 39.2 °F 35.9 °F 30.2 °F 70% 30.37 in 10.0 mi NNE 4.6 mph - N/A   Unknown
8:55 PM 37.4 °F 34.9 °F 30.2 °F 75% 30.37 in 10.0 mi North 3.5 mph - N/A   Unknown
9:15 PM 35.6 °F 32.8 °F 32.0 °F 87% 30.37 in 10.0 mi North 3.5 mph - N/A   Unknown
9:35 PM 35.6 °F 32.8 °F 32.0 °F 87% 30.37 in 10.0 mi NNW 3.5 mph - N/A   Unknown
9:55 PM 35.6 °F 31.7 °F 32.0 °F 87% 30.37 in 10.0 mi North 4.6 mph - N/A   Unknown
10:15 PM 35.6 °F 32.8 °F 32.0 °F 87% 30.37 in 10.0 mi NNE 3.5 mph - N/A   Unknown
10:35 PM 35.6 °F 31.7 °F 32.0 °F 87% 30.36 in 10.0 mi NNE 4.6 mph - N/A   Unknown
10:55 PM 35.6 °F 30.7 °F 32.0 °F 87% 30.36 in 10.0 mi NNE 5.8 mph - N/A   Unknown
11:15 PM 33.8 °F 30.8 °F 30.2 °F 87% 30.36 in 10.0 mi NNE 3.5 mph - N/A   Unknown
11:35 PM 32.0 °F 28.7 °F 30.2 °F 93% 30.36 in 10.0 mi NNE 3.5 mph - N/A   Unknown
11:55 PM 32.0 °F 27.5 °F 30.2 °F 93% 30.36 in 10.0 mi NNE 4.6 mph - N/A   Unknown